createdAt,value
2023-01-13T00:00:12.901Z,8.55
2023-01-13T00:02:43.895Z,8.60
2023-01-13T00:05:14.173Z,8.53
2023-01-13T00:07:44.438Z,8.48
2023-01-13T00:10:14.773Z,8.38
2023-01-13T00:12:44.597Z,8.22
2023-01-13T00:15:15.080Z,8.31
2023-01-13T00:17:46.549Z,8.19
2023-01-13T00:20:18.961Z,8.20
2023-01-13T00:22:48.556Z,8.56
2023-01-13T00:25:18.682Z,8.20
2023-01-13T00:27:49.437Z,7.94
2023-01-13T00:30:23.116Z,7.31
2023-01-13T00:32:54.369Z,7.88
2023-01-13T00:35:24.060Z,7.90
2023-01-13T00:37:55.575Z,8.13
2023-01-13T00:40:25.428Z,8.05
2023-01-13T00:43:12.844Z,7.97
2023-01-13T00:45:43.220Z,7.92
2023-01-13T00:48:14.915Z,8.03
2023-01-13T00:50:45.776Z,7.94
2023-01-13T00:53:17.663Z,8.11
2023-01-13T00:55:47.635Z,7.97
2023-01-13T00:58:18.595Z,8.14
2023-01-13T01:00:49.517Z,8.11
2023-01-13T01:03:22.848Z,7.80
2023-01-13T01:05:56.818Z,7.81
2023-01-13T01:08:26.347Z,7.79
2023-01-13T01:11:03.410Z,7.57
2023-01-13T01:13:34.247Z,7.91
2023-01-13T01:16:07.661Z,7.92
2023-01-13T01:18:41.760Z,7.79
2023-01-13T01:21:12.363Z,7.90
2023-01-13T01:23:42.779Z,7.96
2023-01-13T01:26:14.778Z,8.14
2023-01-13T01:28:45.193Z,8.10
2023-01-13T01:31:17.085Z,7.91
2023-01-13T01:33:48.668Z,8.08
2023-01-13T01:36:23.499Z,8.16
2023-01-13T01:38:53.784Z,7.88
2023-01-13T01:41:26.148Z,7.94
2023-01-13T01:44:00.665Z,7.95
2023-01-13T01:46:33.761Z,7.86
2023-01-13T01:49:09.077Z,7.96
2023-01-13T01:51:43.246Z,7.93
2023-01-13T01:54:17.474Z,7.84
2023-01-13T01:56:48.541Z,7.78
2023-01-13T01:59:19.577Z,7.80
2023-01-13T02:01:50.833Z,7.74
2023-01-13T02:04:27.849Z,7.70
2023-01-13T02:06:59.049Z,7.64
2023-01-13T02:09:28.645Z,7.76
2023-01-13T02:12:27.343Z,7.87
2023-01-13T02:14:58.220Z,7.67
2023-01-13T02:17:41.038Z,7.04
2023-01-13T02:20:41.006Z,7.56
2023-01-13T02:24:07.231Z,7.75
2023-01-13T02:27:15.186Z,7.61
2023-01-13T02:30:23.639Z,7.57
2023-01-13T02:33:08.233Z,7.70
2023-01-13T02:35:46.836Z,7.74
2023-01-13T02:38:26.601Z,7.70
2023-01-13T02:41:22.317Z,7.75
2023-01-13T02:44:08.426Z,7.73
2023-01-13T02:46:47.084Z,7.57
2023-01-13T02:49:25.214Z,7.70
2023-01-13T02:52:00.517Z,7.76
2023-01-13T02:54:31.847Z,7.85
2023-01-13T02:57:04.511Z,7.77
2023-01-13T02:59:35.852Z,7.93
2023-01-13T03:02:13.140Z,8.05
2023-01-13T03:04:52.463Z,7.93
2023-01-13T03:07:46.699Z,7.97
2023-01-13T03:10:28.906Z,8.15
2023-01-13T03:13:09.578Z,8.01
2023-01-13T03:15:49.645Z,8.28
2023-01-13T03:18:34.759Z,8.21
2023-01-13T03:21:09.459Z,7.94
2023-01-13T03:23:50.599Z,8.05
2023-01-13T03:26:28.595Z,8.14
2023-01-13T03:29:03.584Z,8.14
2023-01-13T03:31:36.079Z,7.98
2023-01-13T03:34:13.142Z,7.86
2023-01-13T03:36:45.783Z,7.74
2023-01-13T03:39:25.243Z,7.97
2023-01-13T03:42:00.168Z,8.15
2023-01-13T03:44:34.021Z,7.92
2023-01-13T03:47:12.494Z,7.19
2023-01-13T03:49:49.791Z,7.64
2023-01-13T03:52:26.511Z,7.73
2023-01-13T03:55:02.547Z,7.84
2023-01-13T03:57:36.725Z,7.64
2023-01-13T04:00:10.724Z,7.48
2023-01-13T04:02:50.667Z,7.45
2023-01-13T04:05:26.167Z,7.56
2023-01-13T04:08:04.031Z,7.72
2023-01-13T04:10:39.720Z,7.73
2023-01-13T04:13:13.697Z,7.73
2023-01-13T04:15:46.873Z,7.51
2023-01-13T04:18:19.195Z,7.80
2023-01-13T04:20:52.495Z,7.62
2023-01-13T04:23:23.723Z,7.68
2023-01-13T04:25:53.984Z,7.39
2023-01-13T04:28:25.097Z,7.42
2023-01-13T04:30:55.828Z,7.44
2023-01-13T04:33:26.452Z,7.34
2023-01-13T04:36:00.824Z,7.46
2023-01-13T04:38:33.366Z,7.67
2023-01-13T04:41:03.336Z,7.35
2023-01-13T04:43:33.496Z,7.51
2023-01-13T04:46:03.732Z,7.48
2023-01-13T04:48:33.387Z,7.43
2023-01-13T04:51:04.833Z,7.49
2023-01-13T04:53:34.955Z,7.44
2023-01-13T04:56:05.426Z,7.34
2023-01-13T04:58:34.985Z,7.61
2023-01-13T05:01:05.824Z,7.78
2023-01-13T05:03:36.165Z,7.19
2023-01-13T05:06:07.802Z,7.74
2023-01-13T05:08:39.948Z,7.69
2023-01-13T05:11:23.766Z,7.67
2023-01-13T05:14:13.290Z,7.21
2023-01-13T05:17:00.513Z,7.56
2023-01-13T05:19:32.296Z,7.61
2023-01-13T05:22:26.655Z,7.54
2023-01-13T05:25:14.675Z,7.73
2023-01-13T05:27:44.234Z,7.76
2023-01-13T05:30:14.577Z,7.85
2023-01-13T05:32:46.583Z,7.78
2023-01-13T05:35:17.740Z,7.87
2023-01-13T05:37:49.384Z,7.73
2023-01-13T05:40:40.334Z,7.81
2023-01-13T05:43:21.667Z,7.85
2023-01-13T05:45:58.703Z,7.77
2023-01-13T05:48:31.879Z,7.69
2023-01-13T05:51:01.718Z,7.02
2023-01-13T05:53:34.879Z,7.75
2023-01-13T05:56:06.833Z,7.83
2023-01-13T05:58:37.115Z,7.79
2023-01-13T06:01:10.105Z,7.60
2023-01-13T06:03:40.113Z,7.77
2023-01-13T06:06:10.354Z,7.61
2023-01-13T06:08:41.670Z,7.73
2023-01-13T06:11:12.192Z,7.84
2023-01-13T06:13:42.261Z,7.81
2023-01-13T06:16:12.214Z,7.41
2023-01-13T06:18:43.679Z,7.55
2023-01-13T06:21:14.344Z,7.68
2023-01-13T06:23:46.124Z,7.89
2023-01-13T06:26:20.207Z,7.67
2023-01-13T06:28:50.147Z,7.77
2023-01-13T06:31:19.532Z,8.11
2023-01-13T06:33:51.996Z,7.98
2023-01-13T06:36:23.760Z,8.01
2023-01-13T06:38:58.179Z,8.22
2023-01-13T06:41:42.899Z,8.17
2023-01-13T06:44:12.809Z,7.98
2023-01-13T06:46:42.078Z,8.20
2023-01-13T06:49:11.016Z,8.12
2023-01-13T06:51:40.504Z,8.13
2023-01-13T06:54:13.258Z,7.97
2023-01-13T06:56:42.351Z,8.08
2023-01-13T06:59:11.221Z,8.02
2023-01-13T07:01:42.375Z,8.24
2023-01-13T07:04:14.186Z,8.29
2023-01-13T07:06:44.228Z,8.28
2023-01-13T07:09:14.632Z,8.22
2023-01-13T07:11:43.651Z,8.28
2023-01-13T07:14:30.606Z,7.97
2023-01-13T07:16:59.550Z,8.31
2023-01-13T07:19:28.510Z,8.18
2023-01-13T07:21:57.535Z,8.19
2023-01-13T07:24:28.363Z,8.04
2023-01-13T07:26:57.716Z,8.12
2023-01-13T07:29:29.680Z,8.20
2023-01-13T07:31:59.788Z,8.05
2023-01-13T07:34:29.575Z,8.14
2023-01-13T07:36:59.401Z,8.20
2023-01-13T07:39:30.863Z,8.22
2023-01-13T07:42:17.049Z,8.19
2023-01-13T07:44:46.551Z,8.12
2023-01-13T07:47:15.270Z,8.23
2023-01-13T07:49:44.379Z,8.22
2023-01-13T07:52:13.551Z,8.19
2023-01-13T07:54:43.942Z,8.24
2023-01-13T07:57:13.180Z,8.21
2023-01-13T07:59:41.981Z,8.23
2023-01-13T08:02:13.270Z,8.19
2023-01-13T08:04:42.692Z,8.17
2023-01-13T08:07:12.114Z,8.15
2023-01-13T08:09:40.958Z,8.06
2023-01-13T08:12:28.732Z,8.16
2023-01-13T08:14:57.596Z,8.01
2023-01-13T08:17:26.465Z,8.03
2023-01-13T08:19:55.489Z,7.65
2023-01-13T08:22:26.847Z,7.85
2023-01-13T08:24:56.624Z,7.74
2023-01-13T08:27:26.940Z,7.77
2023-01-13T08:29:55.873Z,7.76
2023-01-13T08:32:24.883Z,7.73
2023-01-13T08:34:53.737Z,7.75
2023-01-13T08:37:22.530Z,7.64
2023-01-13T08:39:51.373Z,7.68
2023-01-13T08:42:20.930Z,7.67
2023-01-13T08:44:54.385Z,7.74
2023-01-13T08:47:23.227Z,7.85
2023-01-13T08:49:54.532Z,7.71
2023-01-13T08:52:23.779Z,7.72
2023-01-13T08:54:55.969Z,7.66
2023-01-13T08:57:24.885Z,7.77
2023-01-13T08:59:57.625Z,7.69
2023-01-13T09:02:27.899Z,7.91
2023-01-13T09:04:58.084Z,7.77
2023-01-13T09:07:27.493Z,7.22
2023-01-13T09:09:57.151Z,7.87
2023-01-13T09:12:44.155Z,7.90
2023-01-13T09:15:18.458Z,7.93
2023-01-13T09:17:48.272Z,7.94
2023-01-13T09:20:17.257Z,7.87
2023-01-13T09:22:46.430Z,8.02
2023-01-13T09:25:15.436Z,7.93
2023-01-13T09:27:44.647Z,8.10
2023-01-13T09:30:15.902Z,8.18
2023-01-13T09:32:45.192Z,8.19
2023-01-13T09:35:13.997Z,8.19
2023-01-13T09:37:43.277Z,8.13
2023-01-13T09:40:19.493Z,8.07
2023-01-13T09:43:11.788Z,8.10
2023-01-13T09:45:47.998Z,8.13
2023-01-13T09:48:23.753Z,8.21
2023-01-13T09:51:01.930Z,8.19
2023-01-13T09:53:35.679Z,8.22
2023-01-13T09:56:04.956Z,8.17
2023-01-13T09:58:34.948Z,8.21
2023-01-13T10:01:17.515Z,8.22
2023-01-13T10:03:49.493Z,8.22
2023-01-13T10:06:22.494Z,8.27
2023-01-13T10:08:52.301Z,8.34
2023-01-13T10:11:38.117Z,8.40
2023-01-13T10:14:14.841Z,8.28
2023-01-13T10:16:52.465Z,8.28
2023-01-13T10:19:27.676Z,8.29
2023-01-13T10:22:19.155Z,8.28
2023-01-13T10:25:09.952Z,8.34
2023-01-13T10:27:40.494Z,8.42
2023-01-13T10:30:14.514Z,8.41
2023-01-13T10:32:49.007Z,8.34
2023-01-13T10:35:18.510Z,8.43
2023-01-13T10:37:59.064Z,8.28
2023-01-13T10:40:28.793Z,8.26
2023-01-13T10:43:07.346Z,8.38
2023-01-13T10:45:37.533Z,8.45
2023-01-13T10:48:15.446Z,8.42
2023-01-13T10:50:48.416Z,8.48
2023-01-13T10:53:20.328Z,8.50
2023-01-13T10:56:02.853Z,8.54
2023-01-13T10:58:31.967Z,8.50
2023-01-13T11:01:03.163Z,8.41
2023-01-13T11:03:41.805Z,8.58
2023-01-13T11:06:22.203Z,8.44
2023-01-13T11:08:55.623Z,8.51
2023-01-13T11:11:40.329Z,8.49
2023-01-13T11:14:34.983Z,8.44
2023-01-13T11:17:11.874Z,8.31
2023-01-13T11:19:49.049Z,8.68
2023-01-13T11:22:22.783Z,8.70
2023-01-13T11:24:56.769Z,7.82
2023-01-13T11:27:39.508Z,8.64
2023-01-13T11:30:18.929Z,8.67
2023-01-13T11:33:01.071Z,8.75
2023-01-13T11:35:35.633Z,8.65
2023-01-13T11:38:13.861Z,8.77
2023-01-13T11:40:47.742Z,8.75
2023-01-13T11:43:27.755Z,8.62
2023-01-13T11:45:59.695Z,8.65
2023-01-13T11:48:32.298Z,8.68
2023-01-13T11:51:05.028Z,8.80
2023-01-13T11:54:02.528Z,8.76
2023-01-13T11:56:57.167Z,8.75
2023-01-13T11:59:53.757Z,8.86
2023-01-13T12:02:41.505Z,8.72
2023-01-13T12:05:20.359Z,8.81
2023-01-13T12:08:00.562Z,8.85
2023-01-13T12:10:44.641Z,8.82
2023-01-13T12:13:25.631Z,8.81
2023-01-13T12:16:06.023Z,8.79
2023-01-13T12:19:11.393Z,8.91
2023-01-13T12:21:58.429Z,8.84
2023-01-13T12:24:33.083Z,8.86
2023-01-13T12:27:11.979Z,8.74
2023-01-13T12:29:41.157Z,8.84
2023-01-13T12:32:15.903Z,8.83
2023-01-13T12:34:57.345Z,8.62
2023-01-13T12:37:35.223Z,8.76
2023-01-13T12:40:27.611Z,8.72
2023-01-13T12:43:22.948Z,8.83
2023-01-13T12:45:52.465Z,8.77
2023-01-13T12:48:49.219Z,8.79
2023-01-13T12:51:26.956Z,8.75
2023-01-13T12:53:59.123Z,8.78
2023-01-13T12:56:45.849Z,8.78
2023-01-13T12:59:51.554Z,8.88
2023-01-13T13:02:39.898Z,8.88
2023-01-13T13:05:52.714Z,8.75
2023-01-13T13:08:32.701Z,8.80
2023-01-13T13:11:35.503Z,8.89
2023-01-13T13:14:07.931Z,8.86
2023-01-13T13:16:49.817Z,8.63
2023-01-13T13:19:45.374Z,8.73
2023-01-13T13:22:47.119Z,8.85
2023-01-13T13:25:28.097Z,8.89
2023-01-13T13:28:20.270Z,8.77
2023-01-13T13:31:03.810Z,8.86
2023-01-13T13:33:51.753Z,8.96
2023-01-13T13:36:42.497Z,8.73
2023-01-13T13:39:40.068Z,9.02
2023-01-13T13:42:33.079Z,8.95
2023-01-13T13:45:34.649Z,8.66
2023-01-13T13:48:27.069Z,8.89
2023-01-13T13:51:00.516Z,8.80
2023-01-13T13:53:35.790Z,8.87
2023-01-13T13:56:16.024Z,8.83
2023-01-13T13:58:45.436Z,8.87
2023-01-13T14:01:22.930Z,8.83
2023-01-13T14:04:07.416Z,8.91
2023-01-13T14:06:36.489Z,8.71
2023-01-13T14:09:05.634Z,8.88
2023-01-13T14:11:38.453Z,8.80
2023-01-13T14:14:14.001Z,8.78
2023-01-13T14:16:43.903Z,8.89
2023-01-13T14:19:27.735Z,8.66
2023-01-13T14:21:57.554Z,8.78
2023-01-13T14:24:27.416Z,8.71
2023-01-13T14:27:09.546Z,8.84
2023-01-13T14:29:38.777Z,8.64
2023-01-13T14:32:09.231Z,8.79
2023-01-13T14:34:40.617Z,8.77
2023-01-13T14:37:25.486Z,8.87
2023-01-13T14:39:56.012Z,8.76
2023-01-13T14:42:25.505Z,8.64
2023-01-13T14:44:56.332Z,8.10
2023-01-13T14:47:28.266Z,8.93
2023-01-13T14:50:03.000Z,8.83
2023-01-13T14:52:36.921Z,8.86
2023-01-13T14:55:25.228Z,8.74
2023-01-13T14:57:54.357Z,8.69
2023-01-13T15:00:26.772Z,8.85
2023-01-13T15:03:08.469Z,8.85
2023-01-13T15:05:47.769Z,8.94
2023-01-13T15:08:40.889Z,8.80
2023-01-13T15:11:25.021Z,8.64
2023-01-13T15:14:02.581Z,8.84
2023-01-13T15:16:34.960Z,8.78
2023-01-13T15:19:05.036Z,8.49
2023-01-13T15:21:37.795Z,8.82
2023-01-13T15:24:10.295Z,8.80
2023-01-13T15:26:39.877Z,8.76
2023-01-13T15:29:14.525Z,7.96
2023-01-13T15:31:46.144Z,8.72
2023-01-13T15:34:15.192Z,8.71
2023-01-13T15:36:45.833Z,8.73
2023-01-13T15:39:15.436Z,8.80
2023-01-13T15:42:02.301Z,8.67
2023-01-13T15:44:48.776Z,8.75
2023-01-13T15:47:18.043Z,7.99
2023-01-13T15:49:47.987Z,8.80
2023-01-13T15:52:22.215Z,8.61
2023-01-13T15:54:51.808Z,8.81
2023-01-13T15:57:24.548Z,8.77
2023-01-13T15:59:57.833Z,8.78
2023-01-13T16:02:27.078Z,8.79
2023-01-13T16:04:56.968Z,8.68
2023-01-13T16:07:27.902Z,8.60
2023-01-13T16:09:56.924Z,8.55
2023-01-13T16:12:25.873Z,8.66
2023-01-13T16:14:56.024Z,8.60
2023-01-13T16:17:29.795Z,8.61
2023-01-13T16:19:59.894Z,8.50
2023-01-13T16:22:30.434Z,8.63
2023-01-13T16:25:00.233Z,8.46
2023-01-13T16:27:28.949Z,8.36
2023-01-13T16:29:58.299Z,8.47
2023-01-13T16:32:27.821Z,8.49
2023-01-13T16:34:58.330Z,8.36
2023-01-13T16:37:31.161Z,8.12
2023-01-13T16:40:01.444Z,7.88
2023-01-13T16:42:31.713Z,7.70
2023-01-13T16:45:07.329Z,7.59
2023-01-13T16:47:37.615Z,6.58
2023-01-13T16:50:07.754Z,7.49
2023-01-13T16:52:38.706Z,7.37
2023-01-13T16:55:07.728Z,7.34
2023-01-13T16:57:39.312Z,7.21
2023-01-13T17:00:10.876Z,7.24
2023-01-13T17:02:40.894Z,7.03
2023-01-13T17:05:15.651Z,6.81
2023-01-13T17:07:47.851Z,6.78
2023-01-13T17:10:19.008Z,7.00
2023-01-13T17:12:49.003Z,7.06
2023-01-13T17:15:20.811Z,7.02
2023-01-13T17:17:52.334Z,7.22
2023-01-13T17:20:23.844Z,7.24
2023-01-13T17:22:58.761Z,7.27
2023-01-13T17:25:28.559Z,7.29
2023-01-13T17:28:02.191Z,7.30
2023-01-13T17:30:31.398Z,7.36
2023-01-13T17:33:00.779Z,7.38
2023-01-13T17:35:30.557Z,7.44
2023-01-13T17:38:04.007Z,7.45
2023-01-13T17:40:33.157Z,7.49
2023-01-13T17:43:03.276Z,7.57
2023-01-13T17:45:34.294Z,7.61
2023-01-13T17:48:06.340Z,7.46
2023-01-13T17:50:40.054Z,7.74
2023-01-13T17:53:11.448Z,7.69
2023-01-13T17:55:40.680Z,6.87
2023-01-13T17:58:10.054Z,7.82
2023-01-13T18:00:38.864Z,7.60
2023-01-13T18:03:08.143Z,7.82
2023-01-13T18:05:37.836Z,7.68
2023-01-13T18:08:07.671Z,7.59
2023-01-13T18:10:38.640Z,7.73
2023-01-13T18:13:09.640Z,7.65
2023-01-13T18:15:38.912Z,7.63
2023-01-13T18:18:07.916Z,7.69
2023-01-13T18:20:54.446Z,7.69
2023-01-13T18:23:41.074Z,7.84
2023-01-13T18:26:36.196Z,6.95
2023-01-13T18:29:05.539Z,7.80
2023-01-13T18:31:35.151Z,7.72
2023-01-13T18:34:04.507Z,7.84
2023-01-13T18:36:33.604Z,7.73
2023-01-13T18:39:03.533Z,7.82
2023-01-13T18:41:51.288Z,7.86
2023-01-13T18:44:21.429Z,7.70
2023-01-13T18:46:53.576Z,7.89
2023-01-13T18:49:23.132Z,7.82
2023-01-13T18:51:52.513Z,7.87
2023-01-13T18:54:21.793Z,7.81
2023-01-13T18:56:54.521Z,7.96
2023-01-13T18:59:25.109Z,7.29
2023-01-13T19:01:54.689Z,8.12
2023-01-13T19:04:27.369Z,8.08
2023-01-13T19:07:01.170Z,7.97
2023-01-13T19:09:32.595Z,8.10
2023-01-13T19:12:06.141Z,8.25
2023-01-13T19:14:37.615Z,8.15
2023-01-13T19:17:09.742Z,8.08
2023-01-13T19:19:43.788Z,8.27
2023-01-13T19:22:15.144Z,8.25
2023-01-13T19:24:47.361Z,8.04
2023-01-13T19:27:19.771Z,7.94
2023-01-13T19:29:52.516Z,7.73
2023-01-13T19:32:22.914Z,8.02
2023-01-13T19:34:53.609Z,7.32
2023-01-13T19:37:23.167Z,8.08
2023-01-13T19:39:52.277Z,8.12
2023-01-13T19:42:45.847Z,7.76
2023-01-13T19:45:30.683Z,7.91
2023-01-13T19:48:02.415Z,7.69
2023-01-13T19:50:31.549Z,7.68
2023-01-13T19:53:01.461Z,7.18
2023-01-13T19:55:32.178Z,7.77
2023-01-13T19:58:03.719Z,7.60
2023-01-13T20:00:33.662Z,7.64
2023-01-13T20:03:08.098Z,7.59
2023-01-13T20:05:37.946Z,7.55
2023-01-13T20:08:07.777Z,7.45
2023-01-13T20:10:37.624Z,7.45
2023-01-13T20:13:09.012Z,6.77
2023-01-13T20:15:39.367Z,7.48
2023-01-13T20:18:09.797Z,7.47
2023-01-13T20:20:39.085Z,7.53
2023-01-13T20:23:08.761Z,7.46
2023-01-13T20:25:38.003Z,7.75
2023-01-13T20:28:09.082Z,7.71
2023-01-13T20:30:41.737Z,7.79
2023-01-13T20:33:11.075Z,7.76
2023-01-13T20:35:40.318Z,7.85
2023-01-13T20:38:10.040Z,7.15
2023-01-13T20:40:39.257Z,7.98
2023-01-13T20:43:09.214Z,7.91
2023-01-13T20:45:40.612Z,7.98
2023-01-13T20:48:09.688Z,7.92
2023-01-13T20:50:39.165Z,7.94
2023-01-13T20:53:08.399Z,8.11
2023-01-13T20:55:40.132Z,8.09
2023-01-13T20:58:10.485Z,8.00
2023-01-13T21:00:39.383Z,8.19
2023-01-13T21:03:08.776Z,8.10
2023-01-13T21:05:38.325Z,8.20
2023-01-13T21:08:07.452Z,8.20
2023-01-13T21:10:36.590Z,8.14
2023-01-13T21:13:23.867Z,8.02
2023-01-13T21:15:57.070Z,7.90
2023-01-13T21:18:43.988Z,8.17
2023-01-13T21:21:14.389Z,8.08
2023-01-13T21:23:53.311Z,8.08
2023-01-13T21:26:24.628Z,7.98
2023-01-13T21:28:59.187Z,8.07
2023-01-13T21:31:31.874Z,8.00
2023-01-13T21:34:01.911Z,8.12
2023-01-13T21:36:32.423Z,8.02
2023-01-13T21:39:03.046Z,7.94
2023-01-13T21:41:52.820Z,8.24
2023-01-13T21:44:40.687Z,8.10
2023-01-13T21:47:34.916Z,8.20
2023-01-13T21:50:05.919Z,8.11
2023-01-13T21:52:34.851Z,8.11
2023-01-13T21:55:25.786Z,8.22
2023-01-13T21:57:57.206Z,8.17
2023-01-13T22:00:31.932Z,8.06
2023-01-13T22:03:04.474Z,8.01
2023-01-13T22:05:35.732Z,8.18
2023-01-13T22:08:07.360Z,8.20
2023-01-13T22:10:58.322Z,8.13
2023-01-13T22:13:47.724Z,8.00
2023-01-13T22:16:19.340Z,8.08
2023-01-13T22:18:50.410Z,8.04
2023-01-13T22:21:20.898Z,8.02
2023-01-13T22:23:51.044Z,8.09
2023-01-13T22:26:21.067Z,8.00
2023-01-13T22:28:52.204Z,7.89
2023-01-13T22:31:24.769Z,7.97
2023-01-13T22:33:57.106Z,8.13
2023-01-13T22:36:27.074Z,8.12
2023-01-13T22:38:57.646Z,8.23
2023-01-13T22:41:27.314Z,8.16
2023-01-13T22:43:57.309Z,8.18
2023-01-13T22:46:27.800Z,8.19
2023-01-13T22:49:00.831Z,8.13
2023-01-13T22:51:31.966Z,8.25
2023-01-13T22:54:01.842Z,8.11
2023-01-13T22:56:31.868Z,8.10
2023-01-13T22:59:03.614Z,8.24
2023-01-13T23:01:34.825Z,8.28
2023-01-13T23:04:06.550Z,8.26
2023-01-13T23:06:41.455Z,8.19
2023-01-13T23:09:11.529Z,8.12
2023-01-13T23:11:42.722Z,8.10
2023-01-13T23:14:14.375Z,8.09
2023-01-13T23:16:44.238Z,7.71
2023-01-13T23:19:17.598Z,8.06
2023-01-13T23:21:47.626Z,7.98
2023-01-13T23:24:18.117Z,7.90
2023-01-13T23:26:48.087Z,7.98
2023-01-13T23:29:18.443Z,7.92
2023-01-13T23:31:48.863Z,8.00
2023-01-13T23:34:19.690Z,7.99
2023-01-13T23:36:49.509Z,7.97
2023-01-13T23:39:19.638Z,8.04
2023-01-13T23:41:52.710Z,7.99
2023-01-13T23:44:22.793Z,8.02
2023-01-13T23:46:52.982Z,7.97
2023-01-13T23:49:24.268Z,7.70
2023-01-13T23:51:54.491Z,7.72
2023-01-13T23:54:24.779Z,7.87
2023-01-13T23:56:55.163Z,7.65
2023-01-13T23:59:27.211Z,7.81
